Johnson City, TX (78636)

4:33 PM CDT on July 30, 2016 (GMT -0500)
Flat Creek Road | | Change Station

Elev 1404 ft 30.25 °N, 98.44 °W | Updated 16 seconds ago

Scattered Clouds
Scattered Clouds
94.1 °F
Feels Like 89 °F
N
6.0
Wind Variable Wind from South
Gusts 9.8 mph

Today
High -- | Low -- °F
--% Chance of Precip.
Yesterday
High -- | Low -- °F
Precip. -- in
Pressure 29.97 in
Visibility 10.0 miles
Clouds Scattered Clouds 6500 ft
Heat Index 89 °F
Dew Point 34 °F
Humidity 12%
Rainfall 0.00 in
Snow Depth Not available.
6:51 AM 8:28 PM
Waning Crescent, 11% visible
METAR KDZB 302115Z AUTO 16007KT 10SM SCT065 36/17 A2997 RMK AO2 T03570173
Pressure 29.97 in
Visibility 10.0 miles
Clouds Scattered Clouds 6500 ft
Heat Index 89 °F
Dew Point 34 °F
Humidity 12%
Rainfall 0.00 in
Snow Depth Not available.
6:51 AM 8:28 PM
Waning Crescent, 11% visible
METAR KDZB 302115Z AUTO 16007KT 10SM SCT065 36/17 A2997 RMK AO2 T03570173

10-Day Weather Forecast

Almanac

Astronomy

Jul. 30, 2016 Rise Set
Actual Time
Civil Twilight
Nautical Twilight
Astronomical Twilight
Moon
Length of Visible Light
Length of Day
Tomorrow will be .
, % of the Moon is Illuminated

Today's Extremes

State Highs State Lows

Community

WunderPhotos

Upload Photos

1,928,654 photos uploaded!

WunderBlog® & News

Nearby

Air Quality

  Air Quality AQ Index Pollutant
Not available.

Snow Depth

Station Depth Elevation

Earthquake Activity

City Distance Mag. Time & Date
Minimum magnitude displayed is 2.5.

Coastal Water Temperatures

Place Temperature

Stations

Nearby Weather Stations

Station Location Temp. Windchill Dew Point Humidity Wind Precip. Elev Updated Type
                   

Watches & Warnings

There are currently no watches in effect.